Time;durP1;ratioP1;P1;durP2;ratioP2;P2;SDS_P1;SDS_P2;PMS_P1;PMS_P2;Temp;Humidity;BMP_temperature;BMP_pressure;BME280_temperature;BME280_humidity;BME280_pressure;Samples;Min_cycle;Max_cycle;Signal;HPM_P1;HPM_P2
2022/10/16 00:02:06;;;;;;;5.60;3.70;;;;;;;11.96;93.55;99317.94;5084720;28;20029;-72
2022/10/16 00:04:34;;;;;;;0.40;0.40;;;;;;;11.90;93.10;99322.44;5118768;28;20053;-72
2022/10/16 00:07:05;;;;;;;1.30;1.30;;;;;;;11.73;92.86;99301.31;5118535;28;20044;-71
2022/10/16 00:09:36;;;;;;;0.40;0.40;;;;;;;11.68;92.83;99311.03;5086321;28;20613;-72
2022/10/16 00:12:06;;;;;;;3.65;1.58;;;;;;;11.71;92.67;99329.97;5084715;28;20047;-71
2022/10/16 00:14:32;;;;;;;0.40;0.40;;;;;;;11.65;92.98;99325.81;5118623;28;20051;-72
2022/10/16 00:17:08;;;;;;;0.40;0.40;;;;;;;11.59;92.74;99323.41;5084860;28;20028;-72
2022/10/16 00:19:36;;;;;;;0.40;0.40;;;;;;;11.59;92.85;99335.53;5086581;28;20058;-72
2022/10/16 00:22:05;;;;;;;0.40;0.40;;;;;;;11.53;92.79;99344.38;5087095;28;20114;-72
2022/10/16 00:24:30;;;;;;;0.35;0.35;;;;;;;11.51;92.53;99339.22;5085867;28;20044;-72
2022/10/16 00:26:58;;;;;;;0.40;0.40;;;;;;;11.48;92.59;99346.25;5087149;28;20047;-71
2022/10/16 00:29:23;;;;;;;0.40;0.40;;;;;;;11.44;nan;99355.06;5120001;28;20020;-72
2022/10/16 00:31:54;;;;;;;0.40;0.40;;;;;;;11.42;92.62;99356.84;5087825;28;20028;-72
2022/10/16 00:34:20;;;;;;;0.40;0.40;;;;;;;11.44;92.81;99360.25;5088372;28;20081;-72
2022/10/16 00:36:48;;;;;;;0.60;0.60;;;;;;;11.30;93.15;99330.31;5088293;28;20501;-71
2022/10/16 00:39:14;;;;;;;0.40;0.40;;;;;;;11.48;93.10;99349.72;5088737;28;20025;-73
2022/10/16 00:41:40;;;;;;;0.40;0.40;;;;;;;11.51;92.92;99357.41;5126167;28;20045;-72
2022/10/16 00:45:00;;;;;;;0.40;0.40;;;;;;;11.53;92.81;99360.81;5089531;28;20044;-72
2022/10/16 00:47:30;;;;;;;0.40;0.40;;;;;;;11.58;92.20;99365.88;5069410;28;20056;-71
2022/10/16 00:50:06;;;;;;;0.45;0.45;;;;;;;11.57;92.37;99356.38;5071037;28;20029;-72
2022/10/16 00:52:41;;;;;;;0.40;0.40;;;;;;;11.58;91.53;99360.66;5073802;28;20032;-70
2022/10/16 00:55:09;;;;;;;1.85;1.75;;;;;;;11.49;91.54;99363.53;5075443;28;20111;-72
2022/10/16 00:57:34;;;;;;;0.40;0.40;;;;;;;11.40;91.26;99357.75;5059826;28;20096;-71
2022/10/16 01:00:12;;;;;;;0.40;0.40;;;;;;;11.15;90.81;99326.38;5058956;28;20044;-71
2022/10/16 01:03:00;;;;;;;2.72;2.63;;;;;;;11.20;91.07;99352.25;5057932;28;20048;-72
2022/10/16 01:05:50;;;;;;;0.40;0.40;;;;;;;11.23;90.92;99371.19;5056435;28;20056;-72
2022/10/16 01:08:27;;;;;;;0.40;0.40;;;;;;;11.02;90.41;99344.06;5073185;28;20034;-72
2022/10/16 01:11:15;;;;;;;0.40;0.40;;;;;;;11.10;90.37;99369.84;5054499;28;20025;-71
2022/10/16 01:13:48;;;;;;;0.40;0.40;;;;;;;11.02;90.40;99370.03;5069049;28;20059;-72
2022/10/16 01:16:30;;;;;;;0.40;0.40;;;;;;;11.02;90.27;99383.03;5068282;28;20033;-73
2022/10/16 01:19:14;;;;;;;;;;;;;;;11.00;89.99;99383.06;5067705;28;20107;-72
2022/10/16 01:21:45;;;;;;;0.40;0.40;;;;;;;10.66;90.33;99345.88;5080589;28;19916;-72
2022/10/16 01:24:26;;;;;;;0.47;0.47;;;;;;;10.72;90.22;99363.00;5088630;28;20024;-72
2022/10/16 01:27:36;;;;;;;1.07;1.07;;;;;;;10.84;90.26;99387.81;5122625;28;20036;-71
2022/10/16 01:30:14;;;;;;;0.80;0.80;;;;;;;10.57;90.21;99348.69;5085082;28;20333;-72
2022/10/16 01:32:45;;;;;;;0.40;0.40;;;;;;;10.46;90.30;99337.69;5089241;28;20024;-71
2022/10/16 01:35:17;;;;;;;0.40;0.40;;;;;;;10.77;90.57;99391.44;5089297;28;20024;-72
2022/10/16 01:37:52;;;;;;;0.40;0.40;;;;;;;10.75;90.43;99395.84;5121544;28;20116;-70
2022/10/16 01:40:21;;;;;;;0.40;0.40;;;;;;;10.64;90.56;99372.72;5121166;28;20397;-72
2022/10/16 01:42:55;;;;;;;0.73;0.73;;;;;;;10.71;90.27;99399.41;5072729;28;20112;-72
2022/10/16 01:45:21;;;;;;;0.40;0.40;;;;;;;10.69;90.41;99391.66;5089101;28;20040;-72
2022/10/16 01:47:52;;;;;;;0.40;0.40;;;;;;;10.66;90.13;99395.19;5121580;28;20058;-71
2022/10/16 01:50:21;;;;;;;0.50;0.50;;;;;;;10.64;90.14;99394.34;5087351;28;20445;-72
2022/10/16 01:52:54;;;;;;;0.40;0.40;;;;;;;10.64;90.13;99396.09;5088732;28;20028;-72
2022/10/16 01:55:29;;;;;;;0.32;0.32;;;;;;;10.62;90.23;99393.53;5088582;28;20044;-72
2022/10/16 01:58:01;;;;;;;0.40;0.40;;;;;;;10.52;90.20;99390.34;5104356;28;20025;-71
2022/10/16 02:00:26;;;;;;;0.47;0.47;;;;;;;10.59;90.31;99396.22;5088117;28;20256;-72
2022/10/16 02:02:57;;;;;;;0.40;0.40;;;;;;;10.57;90.17;99398.00;5119856;28;20369;-71
2022/10/16 02:05:30;;;;;;;0.40;0.40;;;;;;;10.59;90.11;99405.75;5087939;28;20055;-70
2022/10/16 02:07:56;;;;;;;0.40;0.40;;;;;;;10.57;90.33;99403.19;5120441;28;20028;-71
2022/10/16 02:10:30;;;;;;;0.40;0.40;;;;;;;10.45;90.44;99383.53;5087635;28;20025;-71
2022/10/16 02:13:29;;;;;;;0.40;0.40;;;;;;;10.39;90.25;99379.38;5120114;28;20343;-70
2022/10/16 02:15:57;;;;;;;0.40;0.40;;;;;;;10.51;90.43;99399.00;5120593;28;20032;-71
2022/10/16 02:18:26;;;;;;;0.40;0.40;;;;;;;10.48;90.50;99401.66;5086492;28;20020;-70
2022/10/16 02:20:59;;;;;;;0.70;0.70;;;;;;;10.56;90.92;99416.22;5119960;28;20025;-70
2022/10/16 02:24:01;;;;;;;0.40;0.40;;;;;;;10.55;91.04;99420.53;5119815;28;20020;-71
2022/10/16 02:26:52;;;;;;;0.40;0.40;;;;;;;10.23;91.00;99373.69;5071289;28;20076;-70
2022/10/16 02:29:23;;;;;;;0.40;0.40;;;;;;;10.56;90.89;99421.41;5087114;28;20064;-70
2022/10/16 02:32:13;;;;;;;0.50;0.50;;;;;;;10.48;91.15;99422.44;5119182;28;20040;-71
2022/10/16 02:34:48;;;;;;;0.40;0.40;;;;;;;10.44;91.23;99412.13;5086670;28;20032;-70
2022/10/16 02:37:16;;;;;;;4.18;2.60;;;;;;;10.55;91.24;99430.94;5119666;28;20031;-70
2022/10/16 02:39:48;;;;;;;0.40;0.40;;;;;;;10.54;91.14;99431.81;5086533;28;20048;-71
2022/10/16 02:42:17;;;;;;;1.77;1.08;;;;;;;10.49;91.32;99420.69;5105096;28;20036;-71
2022/10/16 02:44:48;;;;;;;0.40;0.40;;;;;;;10.58;91.15;99428.25;5109185;28;20356;-70
2022/10/16 02:47:15;;;;;;;0.50;0.50;;;;;;;10.64;91.26;99432.44;5109199;28;20114;-70
2022/10/16 02:49:40;;;;;;;0.60;0.60;;;;;;;10.66;91.21;99430.66;5108840;28;20058;-70
2022/10/16 02:52:08;;;;;;;0.40;0.40;;;;;;;10.58;91.15;99406.63;5127205;28;20024;-71
2022/10/16 02:54:36;;;;;;;1.58;1.58;;;;;;;10.50;90.96;99402.50;5109051;28;20023;-70
2022/10/16 02:57:03;;;;;;;0.40;0.40;;;;;;;10.64;90.91;99425.50;5108454;28;20024;-70
2022/10/16 02:59:37;;;;;;;0.40;0.40;;;;;;;10.79;90.69;99439.00;5141491;27;20038;-70
2022/10/16 03:02:03;;;;;;;0.43;0.43;;;;;;;10.71;90.97;99412.38;5108476;28;20107;-70
2022/10/16 03:04:39;;;;;;;0.40;0.40;;;;;;;10.59;90.77;99391.00;5108357;28;20027;-70
2022/10/16 03:07:07;;;;;;;0.40;0.40;;;;;;;10.80;90.61;99417.31;5127127;28;20030;-71
2022/10/16 03:09:40;;;;;;;0.40;0.40;;;;;;;10.75;90.47;99420.03;5108385;28;20034;-71
2022/10/16 03:12:12;;;;;;;0.40;0.40;;;;;;;10.81;90.42;99413.88;5142616;27;20016;-70
2022/10/16 03:14:40;;;;;;;0.50;0.50;;;;;;;10.89;90.39;99417.09;5108434;28;20031;-70
2022/10/16 03:17:12;;;;;;;0.40;0.40;;;;;;;10.89;90.55;99417.09;5126700;28;20023;-71
2022/10/16 03:19:47;;;;;;;;;;;;;;;10.93;90.04;99414.44;5108704;28;20031;-71
2022/10/16 03:22:13;;;;;;;0.40;0.40;;;;;;;10.77;90.07;99404.44;5108363;28;19912;-71
2022/10/16 03:24:44;;;;;;;0.40;0.40;;;;;;;10.83;90.09;99413.81;5126572;28;20072;-70
2022/10/16 03:27:13;;;;;;;0.57;0.57;;;;;;;10.84;90.22;99408.59;5125471;28;20476;-70
2022/10/16 03:29:47;;;;;;;0.40;0.40;;;;;;;10.80;90.18;99408.72;5106802;28;20108;-71
2022/10/16 03:32:16;;;;;;;0.40;0.40;;;;;;;10.79;90.01;99413.03;5140867;27;20032;-70
2022/10/16 03:34:44;;;;;;;0.40;0.40;;;;;;;10.59;90.08;99388.41;5142326;27;20031;-70
2022/10/16 03:37:09;;;;;;;0.40;0.40;;;;;;;10.80;89.86;99419.94;5126362;28;20027;-68
2022/10/16 03:39:35;;;;;;;0.43;0.43;;;;;;;10.78;90.19;99432.94;5126158;28;20119;-68
2022/10/16 03:42:00;;;;;;;0.88;0.88;;;;;;;10.60;90.37;99412.63;5107461;28;20116;-68
2022/10/16 03:44:25;;;;;;;0.40;0.40;;;;;;;10.69;90.35;99432.34;5126266;28;20050;-68
2022/10/16 03:46:51;;;;;;;0.40;0.40;;;;;;;10.63;90.29;99423.81;5126103;28;20031;-70
2022/10/16 03:49:16;;;;;;;0.45;0.45;;;;;;;10.59;90.55;99437.72;5126122;28;20035;-70
2022/10/16 03:51:41;;;;;;;0.40;0.40;;;;;;;10.50;90.45;99423.25;5126200;28;20124;-70
2022/10/16 03:54:07;;;;;;;0.40;0.40;;;;;;;10.49;90.39;99426.75;5126052;28;20034;-70
2022/10/16 03:56:32;;;;;;;0.40;0.40;;;;;;;10.42;90.33;99414.75;5126368;28;20024;-69
2022/10/16 03:58:58;;;;;;;0.40;0.40;;;;;;;10.44;90.92;99432.88;5125723;28;20027;-69
2022/10/16 04:01:23;;;;;;;1.23;1.15;;;;;;;10.41;91.00;99429.47;5125831;28;20028;-70
2022/10/16 04:03:48;;;;;;;0.40;0.40;;;;;;;10.40;90.79;99429.50;5125556;28;20019;-70
2022/10/16 04:06:14;;;;;;;0.40;0.40;;;;;;;10.37;90.87;99432.16;5124802;28;20380;-70
2022/10/16 04:08:42;;;;;;;0.45;0.45;;;;;;;10.35;91.24;99434.78;5125105;28;20011;-69
2022/10/16 04:11:08;;;;;;;0.40;0.40;;;;;;;10.37;90.91;99435.63;5125857;28;20020;-69
2022/10/16 04:13:33;;;;;;;0.40;0.40;;;;;;;10.36;91.01;99436.53;5125589;28;20026;-69
2022/10/16 04:15:58;;;;;;;0.40;0.40;;;;;;;10.34;91.50;99430.50;5107373;28;20451;-69
2022/10/16 04:18:26;;;;;;;0.40;0.40;;;;;;;10.31;91.00;99427.13;5125821;28;20026;-69
2022/10/16 04:20:52;;;;;;;0.40;0.40;;;;;;;10.34;91.09;99433.09;5125649;28;20077;-69
2022/10/16 04:23:18;;;;;;;0.40;0.40;;;;;;;10.37;90.73;99432.16;5125822;28;20027;-69
2022/10/16 04:25:43;;;;;;;0.40;0.40;;;;;;;10.36;90.40;99431.34;5128260;28;20023;-69
2022/10/16 04:28:08;;;;;;;0.40;0.40;;;;;;;10.37;90.67;99432.16;5129929;28;20031;-70
2022/10/16 04:30:34;;;;;;;0.40;0.40;;;;;;;10.28;90.75;99425.47;5129751;28;20015;-70
2022/10/16 04:32:59;;;;;;;0.30;0.30;;;;;;;10.28;90.48;99428.06;5129881;28;20024;-69
2022/10/16 04:35:24;;;;;;;0.93;0.88;;;;;;;10.35;90.75;99439.16;5129920;28;20020;-69
2022/10/16 04:37:50;;;;;;;0.50;0.50;;;;;;;10.41;90.38;99428.63;5129902;28;20454;-69
2022/10/16 04:40:15;;;;;;;0.30;0.30;;;;;;;10.46;90.29;99436.31;5129450;28;20027;-69
2022/10/16 04:42:41;;;;;;;0.47;0.47;;;;;;;10.49;90.43;99431.06;5129155;28;20629;-69
2022/10/16 04:45:07;;;;;;;0.40;0.40;;;;;;;10.51;90.46;99426.72;5129712;28;20035;-69
2022/10/16 04:47:33;;;;;;;0.40;0.40;;;;;;;10.49;90.46;99418.97;5111422;28;20089;-70
2022/10/16 04:50:01;;;;;;;0.40;0.40;;;;;;;10.59;90.65;99429.13;5129527;28;20087;-68
2022/10/16 04:52:26;;;;;;;0.57;0.57;;;;;;;10.51;90.51;99417.16;5111219;28;20073;-69
2022/10/16 04:54:52;;;;;;;0.40;0.40;;;;;;;10.56;90.28;99435.22;5129555;28;20023;-70
2022/10/16 04:57:17;;;;;;;0.73;0.68;;;;;;;10.54;90.38;99437.00;5129154;28;20044;-70
2022/10/16 04:59:42;;;;;;;0.40;0.40;;;;;;;10.51;90.51;99445.72;5129282;28;20034;-70
2022/10/16 05:02:08;;;;;;;0.40;0.40;;;;;;;10.48;90.44;99442.34;5129219;28;20034;-70
2022/10/16 05:04:33;;;;;;;0.40;0.40;;;;;;;10.45;90.33;99439.81;5129332;28;20019;-70
2022/10/16 05:06:59;;;;;;;0.40;0.40;;;;;;;10.39;90.42;99436.44;5110793;28;20383;-70
2022/10/16 05:09:24;;;;;;;0.40;0.40;;;;;;;10.33;90.50;99425.34;5128995;28;20053;-70
2022/10/16 05:11:49;;;;;;;0.50;0.50;;;;;;;10.28;90.46;99412.50;5129047;28;20050;-68
2022/10/16 05:14:15;;;;;;;0.40;0.40;;;;;;;10.20;90.70;99409.22;5129103;28;20058;-69
2022/10/16 05:16:40;;;;;;;0.40;0.40;;;;;;;10.26;91.08;99417.72;5129025;28;20039;-70
2022/10/16 05:19:05;;;;;;;1.30;1.30;;;;;;;10.28;91.23;99422.88;5128764;28;20027;-69
2022/10/16 05:21:31;;;;;;;0.40;0.40;;;;;;;10.27;91.16;99424.59;5129052;28;20020;-70
2022/10/16 05:23:56;;;;;;;0.40;0.40;;;;;;;10.28;91.36;99423.72;5128936;28;20031;-70
2022/10/16 05:26:22;;;;;;;1.02;1.02;;;;;;;10.30;91.39;99421.09;5128815;28;20024;-69
2022/10/16 05:28:49;;;;;;;0.68;0.68;;;;;;;10.32;91.66;99427.09;5128644;28;20451;-70
2022/10/16 05:31:14;;;;;;;0.82;0.82;;;;;;;10.37;91.61;99419.19;5128783;28;20115;-69
2022/10/16 05:33:39;;;;;;;0.40;0.40;;;;;;;10.39;91.79;99417.44;5128846;28;20034;-70
2022/10/16 05:36:07;;;;;;;1.02;1.02;;;;;;;10.47;91.52;99417.28;5109467;28;20031;-70
2022/10/16 05:38:34;;;;;;;0.40;0.40;;;;;;;10.48;91.52;99419.81;5128476;28;20043;-70
2022/10/16 05:40:59;;;;;;;0.40;0.40;;;;;;;10.44;91.80;99418.19;5128724;28;20079;-70
2022/10/16 05:43:27;;;;;;;0.40;0.40;;;;;;;10.49;91.63;99421.56;5128109;28;20074;-71
2022/10/16 05:45:57;;;;;;;0.65;0.65;;;;;;;10.47;91.69;99418.13;5128328;28;20031;-70
2022/10/16 05:48:23;;;;;;;0.65;0.65;;;;;;;10.48;92.22;99417.25;5128784;28;20043;-70
2022/10/16 05:50:48;;;;;;;0.40;0.40;;;;;;;10.45;92.29;99401.72;5128506;28;20024;-71
2022/10/16 05:53:14;;;;;;;7.68;2.58;;;;;;;10.64;92.15;99425.50;5128360;28;20020;-71
2022/10/16 05:55:39;;;;;;;0.40;0.40;;;;;;;10.68;92.37;99420.25;5128244;28;20027;-70
2022/10/16 05:58:05;;;;;;;0.40;0.40;;;;;;;10.72;92.46;99433.09;5109693;28;20208;-71
2022/10/16 06:00:30;;;;;;;0.40;0.40;;;;;;;10.77;92.49;99420.88;5127961;28;20036;-70
2022/10/16 06:02:55;;;;;;;0.50;0.50;;;;;;;10.81;92.65;99436.38;5128245;28;20111;-72
2022/10/16 06:05:20;;;;;;;0.40;0.40;;;;;;;10.86;92.73;99432.75;5109628;28;20047;-70
2022/10/16 06:07:46;;;;;;;0.40;0.40;;;;;;;10.91;92.74;99420.50;5128225;28;20027;-71
2022/10/16 06:10:11;;;;;;;0.50;0.50;;;;;;;10.94;92.67;99411.81;5127813;28;20023;-72
2022/10/16 06:12:36;;;;;;;0.40;0.40;;;;;;;10.96;92.79;99404.81;5127587;28;20031;-69
2022/10/16 06:15:02;;;;;;;0.40;0.40;;;;;;;10.99;93.23;99416.88;5127965;28;20031;-70
2022/10/16 06:17:27;;;;;;;0.50;0.50;;;;;;;11.03;92.85;99423.69;5127897;28;20016;-70
2022/10/16 06:19:53;;;;;;;0.40;0.40;;;;;;;11.08;93.14;99419.22;5127805;28;20062;-69
2022/10/16 06:22:18;;;;;;;0.40;0.40;;;;;;;11.05;93.23;99421.03;5127748;28;20016;-70
2022/10/16 06:24:43;;;;;;;0.60;0.60;;;;;;;11.08;93.10;99416.63;5127901;28;20083;-70
2022/10/16 06:27:09;;;;;;;2.92;2.70;;;;;;;11.14;93.20;99419.06;5127178;28;20464;-70
2022/10/16 06:29:34;;;;;;;0.40;0.40;;;;;;;11.18;93.40;99425.03;5127522;28;20016;-71
2022/10/16 06:31:59;;;;;;;0.45;0.45;;;;;;;11.27;93.27;99429.13;5127539;28;20016;-71
2022/10/16 06:34:25;;;;;;;0.50;0.50;;;;;;;11.30;93.42;99423.84;5127470;28;20020;-71
2022/10/16 06:36:50;;;;;;;0.40;0.40;;;;;;;11.34;93.24;99420.25;5109084;28;20418;-71
2022/10/16 06:39:15;;;;;;;0.40;0.40;;;;;;;11.46;93.69;99436.41;5127228;28;20027;-70
2022/10/16 06:41:41;;;;;;;0.88;0.88;;;;;;;11.44;93.57;99425.22;5108705;28;20109;-71
2022/10/16 06:44:07;;;;;;;0.40;0.40;;;;;;;11.50;93.88;99425.03;5126758;28;20492;-71
2022/10/16 06:46:33;;;;;;;0.40;0.40;;;;;;;11.61;93.49;99433.38;5127333;28;20051;-71
2022/10/16 06:48:58;;;;;;;0.93;0.93;;;;;;;11.61;93.80;99414.34;5127045;28;20023;-71
2022/10/16 06:51:25;;;;;;;1.33;1.30;;;;;;;11.86;94.00;99429.22;5108541;28;20031;-70
2022/10/16 06:53:53;;;;;;;0.30;0.30;;;;;;;12.09;94.09;99422.50;5127179;28;20024;-71
2022/10/16 06:56:18;;;;;;;0.55;0.55;;;;;;;12.32;94.17;99424.38;5127222;28;20069;-71
2022/10/16 06:58:45;;;;;;;0.40;0.40;;;;;;;12.84;94.76;99420.13;5108462;28;20023;-71
2022/10/16 07:01:11;;;;;;;0.38;0.38;;;;;;;13.23;94.02;99417.06;5126847;28;20032;-71
2022/10/16 07:03:38;;;;;;;0.40;0.40;;;;;;;13.27;92.97;99421.25;5126935;28;20037;-71
2022/10/16 07:06:05;;;;;;;0.40;0.40;;;;;;;13.29;92.18;99421.19;5126950;28;20424;-71
2022/10/16 07:08:36;;;;;;;0.30;0.30;;;;;;;13.18;90.17;99423.34;5126650;28;20066;-71
2022/10/16 07:11:04;;;;;;;0.40;0.40;;;;;;;13.01;89.59;99416.94;5126892;28;20019;-70
2022/10/16 07:13:30;;;;;;;0.65;0.65;;;;;;;12.92;88.87;99427.69;5126205;28;20031;-70
2022/10/16 07:15:55;;;;;;;0.40;0.40;;;;;;;12.73;89.42;99412.69;5126519;28;20015;-70
2022/10/16 07:18:21;;;;;;;0.43;0.43;;;;;;;12.58;89.70;99416.63;5108247;28;20030;-71
2022/10/16 07:20:47;;;;;;;0.40;0.40;;;;;;;12.56;89.74;99414.09;5126641;28;20478;-69
2022/10/16 07:23:12;;;;;;;0.47;0.47;;;;;;;12.50;89.80;99415.16;5126661;28;20020;-71
2022/10/16 07:25:37;;;;;;;1.65;1.55;;;;;;;12.47;90.01;99419.59;5126781;28;20028;-70
2022/10/16 07:28:03;;;;;;;0.40;0.40;;;;;;;12.41;89.71;99419.78;5107010;28;20030;-69
2022/10/16 07:30:28;;;;;;;0.40;0.40;;;;;;;12.39;89.82;99433.72;5125293;28;20075;-70
2022/10/16 07:32:54;;;;;;;0.45;0.45;;;;;;;12.44;90.13;99428.38;5126183;28;20483;-70
2022/10/16 07:35:19;;;;;;;0.60;0.60;;;;;;;12.55;90.17;99425.41;5126313;28;20120;-69
2022/10/16 07:37:45;;;;;;;0.40;0.40;;;;;;;12.59;89.75;99424.41;5126350;28;20039;-69
2022/10/16 07:40:11;;;;;;;0.40;0.40;;;;;;;12.63;89.53;99419.94;5126259;28;20103;-69
2022/10/16 07:42:36;;;;;;;0.40;0.40;;;;;;;12.66;89.27;99419.84;5125410;28;20058;-68
2022/10/16 07:45:02;;;;;;;0.40;0.40;;;;;;;12.76;89.04;99416.03;5126194;28;20019;-69
2022/10/16 07:47:27;;;;;;;0.40;0.40;;;;;;;12.96;89.64;99409.28;5126168;28;20061;-69
2022/10/16 07:49:52;;;;;;;0.30;0.30;;;;;;;13.18;88.89;99412.91;5126060;28;20053;-70
2022/10/16 07:52:18;;;;;;;0.40;0.40;;;;;;;13.27;87.18;99417.81;5107890;28;20028;-70
2022/10/16 07:54:43;;;;;;;1.58;1.48;;;;;;;13.27;86.84;99418.63;5126079;28;20026;-70
2022/10/16 07:57:08;;;;;;;0.40;0.40;;;;;;;13.24;86.27;99423.94;5125834;28;20027;-70
2022/10/16 07:59:34;;;;;;;0.50;0.50;;;;;;;13.19;86.97;99414.59;5125233;28;20020;-70
2022/10/16 08:01:59;;;;;;;0.30;0.30;;;;;;;13.22;87.09;99409.28;5125973;28;20052;-69
2022/10/16 08:04:24;;;;;;;0.30;0.30;;;;;;;13.37;86.84;99419.16;5125931;28;20495;-70
2022/10/16 08:06:50;;;;;;;0.30;0.30;;;;;;;13.49;86.60;99417.00;5125953;28;20024;-70
2022/10/16 08:09:15;;;;;;;0.40;0.40;;;;;;;13.39;86.14;99396.50;5126017;28;20031;-70
2022/10/16 08:11:40;;;;;;;0.30;0.30;;;;;;;13.48;85.87;99416.16;5125827;28;20024;-69
2022/10/16 08:14:06;;;;;;;0.40;0.40;;;;;;;13.43;85.43;99407.69;5125696;28;20043;-68
2022/10/16 08:16:31;;;;;;;0.40;0.40;;;;;;;13.47;85.33;99411.00;5125728;28;20418;-69
2022/10/16 08:18:56;;;;;;;1.40;1.30;;;;;;;13.35;85.34;99400.13;5125929;28;20032;-68
2022/10/16 08:21:23;;;;;;;0.30;0.30;;;;;;;13.44;85.04;99408.50;5125567;28;20107;-68
2022/10/16 08:23:49;;;;;;;0.30;0.30;;;;;;;13.49;85.19;99417.00;5125979;28;20518;-71
2022/10/16 08:26:15;;;;;;;0.40;0.40;;;;;;;13.57;85.05;99425.44;5125702;28;20028;-69
2022/10/16 08:28:40;;;;;;;0.30;0.30;;;;;;;13.61;85.01;99431.41;5125202;28;20030;-68
2022/10/16 08:31:11;;;;;;;1.00;1.00;;;;;;;13.61;84.28;99429.63;5125681;28;20030;-68
2022/10/16 08:33:37;;;;;;;0.30;0.30;;;;;;;13.54;84.48;99422.94;5125730;28;20027;-68
2022/10/16 08:36:04;;;;;;;0.40;0.40;;;;;;;13.59;84.39;99431.47;5126008;28;20045;-67
2022/10/16 08:38:30;;;;;;;0.30;0.30;;;;;;;13.78;84.62;99422.94;5125785;28;20031;-69
2022/10/16 08:41:26;;;;;;;0.40;0.40;;;;;;;14.20;85.30;99428.34;5125455;28;20082;-72
2022/10/16 08:44:06;;;;;;;0.40;0.40;;;;;;;14.82;82.48;99430.25;5091175;28;20047;-70
2022/10/16 08:46:44;;;;;;;0.32;0.32;;;;;;;15.01;80.72;99430.31;5125821;28;20466;-72
2022/10/16 08:49:15;;;;;;;0.30;0.30;;;;;;;15.04;78.85;99414.50;5125423;28;20041;-72
2022/10/16 08:51:41;;;;;;;1.33;0.52;;;;;;;15.11;79.37;99438.63;5125775;28;20475;-71
2022/10/16 08:54:40;;;;;;;0.30;0.30;;;;;;;15.31;77.89;99427.28;5107469;28;20038;-73
2022/10/16 08:57:18;;;;;;;0.30;0.30;;;;;;;15.66;77.09;99428.38;5125509;28;20055;-71
2022/10/16 08:59:44;;;;;;;0.30;0.30;;;;;;;15.51;74.38;99422.09;5125350;28;20023;-75
2022/10/16 09:02:34;;;;;;;0.30;0.30;;;;;;;15.04;74.72;99438.03;5125621;28;20045;-73
2022/10/16 09:05:16;;;;;;;0.30;0.30;;;;;;;14.65;75.80;99438.75;5129723;28;20016;-74
2022/10/16 09:07:42;;;;;;;;;;;;;;;14.41;77.04;99439.66;5126105;28;20023;-73
2022/10/16 09:10:25;;;;;;;0.30;0.30;;;;;;;14.13;78.04;99438.16;5125568;28;19918;-70
2022/10/16 09:13:29;;;;;;;0.30;0.30;;;;;;;13.99;79.02;99436.09;5129119;28;20034;-67
2022/10/16 09:16:18;;;;;;;0.30;0.30;;;;;;;13.81;79.51;99428.06;5129352;28;20016;-69
2022/10/16 09:19:11;;;;;;;1.95;1.75;;;;;;;13.63;79.65;99437.41;5144656;27;20016;-67
2022/10/16 09:21:42;;;;;;;0.40;0.40;;;;;;;13.49;80.02;99432.66;5109423;28;20019;-68
2022/10/16 09:24:23;;;;;;;0.60;0.60;;;;;;;13.43;80.34;99438.09;5129044;28;20038;-68
2022/10/16 09:26:49;;;;;;;0.50;0.50;;;;;;;13.33;80.78;99427.16;5144680;27;20360;-68
2022/10/16 09:29:16;;;;;;;0.30;0.30;;;;;;;13.29;81.17;99436.81;5128613;28;20475;-68
2022/10/16 09:31:43;;;;;;;0.57;0.57;;;;;;;13.26;81.76;99436.94;5128745;28;20023;-69
2022/10/16 09:34:31;;;;;;;0.40;0.40;;;;;;;13.34;81.75;99432.31;5144894;27;20087;-69
2022/10/16 09:37:01;;;;;;;0.40;0.40;;;;;;;13.46;81.75;99438.00;5128860;28;20207;-69
2022/10/16 09:39:26;;;;;;;0.40;0.40;;;;;;;13.56;81.08;99444.59;5128780;28;20027;-70
2022/10/16 09:41:52;;;;;;;0.40;0.40;;;;;;;13.56;80.68;99415.91;5127963;28;20123;-70
2022/10/16 09:44:29;;;;;;;0.40;0.40;;;;;;;13.58;80.59;99427.13;5128276;28;20110;-71
2022/10/16 09:47:11;;;;;;;1.33;1.27;;;;;;;13.77;80.39;99441.25;5128572;28;20020;-70
2022/10/16 09:49:39;;;;;;;0.40;0.40;;;;;;;14.04;79.54;99439.34;5128016;28;20605;-69
2022/10/16 09:52:12;;;;;;;0.40;0.40;;;;;;;14.17;78.67;99450.16;5109976;28;20479;-70
2022/10/16 09:54:37;;;;;;;0.40;0.40;;;;;;;14.24;77.71;99448.19;5144030;27;20036;-69
2022/10/16 09:57:07;;;;;;;0.40;0.40;;;;;;;14.17;77.19;99444.94;5128079;28;20019;-69
2022/10/16 09:59:33;;;;;;;0.30;0.30;;;;;;;14.13;77.03;99428.56;5128069;28;20035;-71
2022/10/16 10:02:03;;;;;;;1.75;1.65;;;;;;;14.09;77.02;99432.19;5128537;28;20047;-70
2022/10/16 10:04:40;;;;;;;0.43;0.43;;;;;;;13.94;76.95;99424.97;5128770;28;20019;-70
2022/10/16 10:07:06;;;;;;;6.03;2.08;;;;;;;13.81;77.32;99416.75;5127825;28;20023;-70
2022/10/16 10:09:38;;;;;;;0.38;0.38;;;;;;;13.88;77.28;99431.28;5127758;28;20083;-71
2022/10/16 10:12:17;;;;;;;;;;;;;;;14.50;77.89;99436.69;5109892;28;20131;-68
2022/10/16 10:14:48;;;;;;;0.30;0.30;;;;;;;15.11;73.87;99420.31;5127863;28;19914;-71
2022/10/16 10:17:15;;;;;;;8.70;2.58;;;;;;;15.41;72.39;99413.78;5127886;28;20355;-69
2022/10/16 10:19:47;;;;;;;0.40;0.40;;;;;;;15.72;71.39;99422.84;5127613;28;20031;-71
2022/10/16 10:22:23;;;;;;;0.40;0.40;;;;;;;15.98;70.00;99426.94;5127381;28;20039;-69
2022/10/16 10:25:07;;;;;;;1.00;1.00;;;;;;;15.67;69.38;99419.63;5143327;27;20023;-70
2022/10/16 10:27:39;;;;;;;1.40;1.40;;;;;;;15.28;69.92;99416.09;5127638;28;20023;-72
2022/10/16 10:30:38;;;;;;;0.40;0.40;;;;;;;14.96;71.47;99424.44;5127681;28;20024;-74
2022/10/16 10:33:41;;;;;;;0.30;0.30;;;;;;;14.72;72.18;99432.34;5127706;28;20057;-73
2022/10/16 10:36:31;;;;;;;0.30;0.30;;;;;;;14.49;72.81;99434.13;5127666;28;20015;-71
2022/10/16 10:39:06;;;;;;;0.30;0.30;;;;;;;14.24;73.46;99442.94;5143546;27;20439;-70
2022/10/16 10:41:50;;;;;;;0.70;0.70;;;;;;;14.03;74.44;99434.19;5126578;28;20138;-70
2022/10/16 10:44:27;;;;;;;0.40;0.40;;;;;;;13.85;75.07;99420.97;5125910;28;20106;-69
2022/10/16 10:47:17;;;;;;;0.30;0.30;;;;;;;13.63;76.44;99422.59;5127113;28;20030;-71
2022/10/16 10:49:48;;;;;;;0.82;0.82;;;;;;;13.44;77.28;99437.19;5127013;28;20031;-70
2022/10/16 10:52:51;;;;;;;1.20;1.20;;;;;;;13.26;77.87;99429.09;5127239;28;20043;-70
2022/10/16 10:55:20;;;;;;;1.40;1.40;;;;;;;12.98;77.40;99428.34;5127287;28;20028;-66
2022/10/16 10:58:10;;;;;;;1.27;0.90;;;;;;;12.91;79.56;99416.41;5127096;28;20027;-67
2022/10/16 11:00:54;;;;;;;0.40;0.40;;;;;;;12.98;81.34;99422.28;5127049;28;20103;-69
2022/10/16 11:03:57;;;;;;;0.40;0.40;;;;;;;13.05;82.40;99423.75;5126604;28;20024;-67
2022/10/16 11:06:45;;;;;;;0.30;0.30;;;;;;;13.11;82.66;99412.28;5101877;28;20210;-68
2022/10/16 11:09:51;;;;;;;0.40;0.40;;;;;;;13.18;83.14;99408.53;5126932;28;20059;-73
2022/10/16 11:12:26;;;;;;;0.40;0.40;;;;;;;13.22;83.25;99417.09;5125177;28;20133;-74
2022/10/16 11:15:19;;;;;;;8.00;1.52;;;;;;;13.27;83.92;99412.59;5126036;28;20145;-73
2022/10/16 11:18:05;;;;;;;0.30;0.30;;;;;;;13.37;83.93;99395.69;5125817;28;20080;-72
2022/10/16 11:20:38;;;;;;;0.30;0.30;;;;;;;13.36;83.47;99399.22;5125364;28;20026;-74
2022/10/16 11:23:25;;;;;;;0.40;0.40;;;;;;;13.45;83.39;99399.78;5141851;27;20020;-74
2022/10/16 11:25:51;;;;;;;0.82;0.63;;;;;;;13.52;83.64;99401.28;5126405;28;20092;-75
2022/10/16 11:28:26;;;;;;;0.30;0.30;;;;;;;13.57;83.04;99401.13;5125269;28;20026;-77
2022/10/16 11:30:59;;;;;;;0.40;0.40;;;;;;;13.69;83.24;99405.03;5141286;27;20496;-73
2022/10/16 11:33:33;;;;;;;0.40;0.40;;;;;;;13.87;82.34;99391.28;5125685;28;20028;-75
2022/10/16 11:36:21;;;;;;;0.50;0.50;;;;;;;13.85;81.56;99389.66;5107331;28;20037;-72
2022/10/16 11:39:19;;;;;;;0.40;0.40;;;;;;;13.78;81.56;99401.22;5126378;28;20027;-69
2022/10/16 11:41:50;;;;;;;0.40;0.40;;;;;;;13.79;81.62;99395.09;5118191;28;20081;-69
2022/10/16 11:44:34;;;;;;;0.30;0.30;;;;;;;13.75;80.88;99391.75;5126217;28;20019;-69
2022/10/16 11:47:02;;;;;;;1.52;1.50;;;;;;;13.68;80.78;99392.88;5126230;28;20069;-70
2022/10/16 11:49:31;;;;;;;0.38;0.38;;;;;;;13.57;80.18;99386.34;5126188;28;20028;-70
2022/10/16 11:52:07;;;;;;;0.40;0.40;;;;;;;13.48;79.21;99397.06;5125902;28;20068;-69
2022/10/16 11:55:12;;;;;;;0.35;0.35;;;;;;;13.37;79.07;99387.03;5126267;28;20027;-69